Time;durP1;ratioP1;P1;durP2;ratioP2;P2;SDS_P1;SDS_P2;PMS_P1;PMS_P2;Temp;Humidity;BMP_temperature;BMP_pressure;BME280_temperature;BME280_humidity;BME280_pressure;Samples;Min_cycle;Max_cycle;Signal;HPM_P1;HPM_P2
2019/12/12 00:02:22;;;;;;;9;8.4;;;;;;;2.91;98.70605;951.0048;;;;
2019/12/12 00:04:47;;;;;;;9.5;8.8;;;;;;;2.94;98.9502;951.0067;;;;
2019/12/12 00:07:12;;;;;;;9.5;8.8;;;;;;;2.85;99.00781;950.9933;;;;
2019/12/12 00:09:37;;;;;;;10.1;9.4;;;;;;;2.81;99.24902;950.9788;;;;
2019/12/12 00:12:02;;;;;;;9.4;8.7;;;;;;;2.91;98.38965;951;;;;
2019/12/12 00:14:28;;;;;;;11.8;10.9;;;;;;;2.74;99.71973;950.9324;;;;
2019/12/12 00:16:53;;;;;;;11.6;10.7;;;;;;;2.74;99.05078;950.9426;;;;
2019/12/12 00:19:18;;;;;;;10.4;9.6;;;;;;;2.86;99.19336;950.9702;;;;
2019/12/12 00:21:43;;;;;;;10.7;9.9;;;;;;;2.84;98.64648;950.9472;;;;
2019/12/12 00:24:09;;;;;;;10.3;9.5;;;;;;;2.98;98.24805;950.9058;;;;
2019/12/12 00:26:34;;;;;;;10.3;9.6;;;;;;;3.1;97.58691;950.8825;;;;
2019/12/12 00:28:59;;;;;;;11;10.2;;;;;;;2.99;98.4541;950.9072;;;;
2019/12/12 00:31:24;;;;;;;11.5;10.7;;;;;;;2.95;99.62109;950.8773;;;;
2019/12/12 00:33:49;;;;;;;11;10.2;;;;;;;2.92;98.90234;950.7687;;;;
2019/12/12 00:36:15;;;;;;;11.7;10.8;;;;;;;2.87;99.87402;950.8155;;;;
2019/12/12 00:38:40;;;;;;;13.6;12.6;;;;;;;2.8;100;950.8079;;;;
2019/12/12 00:41:05;;;;;;;12.2;11.2;;;;;;;3.05;99.00879;950.8564;;;;
2019/12/12 00:43:31;;;;;;;12.6;11.7;;;;;;;2.84;99.76563;950.8008;;;;
2019/12/12 00:45:56;;;;;;;13.2;12.2;;;;;;;2.76;100;950.7592;;;;
2019/12/12 00:48:42;;;;;;;14.3;13.3;;;;;;;2.76;100;950.7544;;;;
2019/12/12 00:51:10;;;;;;;15.4;14.2;;;;;;;2.71;100;950.7189;;;;
2019/12/12 00:53:18;;;;;;;14.1;13;;;;;;;2.8;100;950.7098;;;;
2019/12/12 00:55:55;;;;;;;15.1;14;;;;;;;2.66;100;950.692;;;;
2019/12/12 00:58:09;;;;;;;13.8;12.8;;;;;;;2.86;100;950.6565;;;;
2019/12/12 01:00:34;;;;;;;14.2;13.2;;;;;;;2.8;100;950.7098;;;;
2019/12/12 01:02:59;;;;;;;14.8;13.7;;;;;;;2.84;100;950.693;;;;
2019/12/12 01:05:25;;;;;;;15.7;14.5;;;;;;;2.69;100;950.7193;;;;
2019/12/12 01:07:51;;;;;;;16.5;15.2;;;;;;;2.65;100;950.7241;;;;
2019/12/12 01:10:14;;;;;;;15.9;14.7;;;;;;;2.77;100;950.7151;;;;
2019/12/12 01:12:39;;;;;;;15.6;14.3;;;;;;;2.74;100;950.6756;;;;
2019/12/12 01:15:04;;;;;;;15.8;14.6;;;;;;;2.78;100;950.6443;;;;
2019/12/12 01:17:29;;;;;;;15.9;14.7;;;;;;;2.71;100;950.6497;;;;
2019/12/12 01:19:54;;;;;;;17.3;16;;;;;;;2.7;100;950.6093;;;;
2019/12/12 01:22:19;;;;;;;18.2;16.8;;;;;;;2.65;100;950.6266;;;;
2019/12/12 01:24:44;;;;;;;17.4;16.1;;;;;;;2.64;100;950.616;;;;
2019/12/12 01:27:10;;;;;;;16.8;15.5;;;;;;;2.7;100;950.6189;;;;
2019/12/12 01:29:35;;;;;;;15.9;14.7;;;;;;;2.79;100;950.6194;;;;
2019/12/12 01:32:02;;;;;;;17.8;16.4;;;;;;;2.6;100;950.6105;;;;
2019/12/12 01:34:25;;;;;;;17.8;16.4;;;;;;;2.7;100;950.6236;;;;
2019/12/12 01:36:50;;;;;;;16.1;14.9;;;;;;;2.81;100;950.5569;;;;
2019/12/12 01:39:18;;;;;;;16;14.8;;;;;;;2.83;100;950.517;;;;
2019/12/12 01:41:43;;;;;;;17.2;15.9;;;;;;;2.72;100;950.5;;;;
2019/12/12 01:44:09;;;;;;;16.6;15.3;;;;;;;2.76;100;950.4763;;;;
2019/12/12 01:46:34;;;;;;;18.4;17;;;;;;;2.72;100;950.4283;;;;
2019/12/12 01:48:59;;;;;;;18;16.6;;;;;;;2.7;100;950.4274;;;;
2019/12/12 01:51:24;;;;;;;18.2;16.8;;;;;;;2.63;100;950.4225;;;;
2019/12/12 01:53:49;;;;;;;18.1;16.7;;;;;;;2.67;100;950.3918;;;;
2019/12/12 01:56:14;;;;;;;16.9;15.6;;;;;;;2.76;100;950.3273;;;;
2019/12/12 01:58:39;;;;;;;16;14.8;;;;;;;2.85;100;950.2589;;;;
2019/12/12 02:01:04;;;;;;;18;16.6;;;;;;;2.63;100;950.2886;;;;
2019/12/12 02:03:29;;;;;;;19.5;18;;;;;;;2.43;100;950.3072;;;;
2019/12/12 02:05:54;;;;;;;18.7;17.3;;;;;;;2.55;100;950.3387;;;;
2019/12/12 02:08:19;;;;;;;18.3;16.9;;;;;;;2.78;100;950.2985;;;;
2019/12/12 02:10:45;;;;;;;18;16.6;;;;;;;2.47;100;950.295;;;;
2019/12/12 02:13:10;;;;;;;18.8;17.3;;;;;;;2.58;100;950.2224;;;;
2019/12/12 02:15:35;;;;;;;19.3;17.8;;;;;;;2.4;100;950.2059;;;;
2019/12/12 02:18:00;;;;;;;19.4;17.9;;;;;;;2.46;100;950.1572;;;;
2019/12/12 02:20:34;;;;;;;17.3;15.9;;;;;;;2.55;100;950.1859;;;;
2019/12/12 02:23:06;;;;;;;19.3;17.8;;;;;;;2.45;100;950.2225;;;;
2019/12/12 02:25:22;;;;;;;20;18.4;;;;;;;2.38;100;950.132;;;;
2019/12/12 02:27:53;;;;;;;19.1;17.5;;;;;;;2.36;100;950.1303;;;;
2019/12/12 02:32:53;;;;;;;19.2;17.7;;;;;;;2.43;100;950.1522;;;;
2019/12/12 02:35:18;;;;;;;18.5;17;;;;;;;2.39;100;950.0959;;;;
2019/12/12 02:37:43;;;;;;;17.3;15.9;;;;;;;2.48;100;950.0203;;;;
2019/12/12 02:40:08;;;;;;;17;15.6;;;;;;;2.26;100;950.0634;;;;
2019/12/12 02:42:33;;;;;;;19.6;17.9;;;;;;;2.32;100;950.1001;;;;
2019/12/12 02:44:58;;;;;;;19.5;17.9;;;;;;;2.43;100;950.0139;;;;
2019/12/12 02:47:23;;;;;;;15.9;14.6;;;;;;;2.5;100;949.9783;;;;
2019/12/12 02:49:48;;;;;;;15.6;14.3;;;;;;;2.46;100;949.9603;;;;
2019/12/12 02:52:13;;;;;;;15.2;14;;;;;;;2.53;100;949.9537;;;;
2019/12/12 02:54:38;;;;;;;16.5;15.1;;;;;;;2.37;100;949.9952;;;;
2019/12/12 02:57:04;;;;;;;16.2;14.9;;;;;;;2.41;100;949.9794;;;;
2019/12/12 02:59:29;;;;;;;15.5;14.3;;;;;;;2.5;100;949.9816;;;;
2019/12/12 03:01:54;;;;;;;15.5;14.3;;;;;;;2.6;100;950.003;;;;
2019/12/12 03:04:19;;;;;;;14.7;13.5;;;;;;;2.51;100;949.9914;;;;
2019/12/12 03:06:44;;;;;;;14.1;12.9;;;;;;;2.48;100;949.9921;;;;
2019/12/12 03:09:09;;;;;;;15.1;13.9;;;;;;;2.46;100;949.9378;;;;
2019/12/12 03:11:34;;;;;;;15.9;14.5;;;;;;;2.24;100;949.9341;;;;
2019/12/12 03:13:59;;;;;;;15.9;14.6;;;;;;;2.25;100;949.949;;;;
2019/12/12 03:16:24;;;;;;;15;13.8;;;;;;;2.31;100;949.9785;;;;
2019/12/12 03:18:49;;;;;;;15.9;14.5;;;;;;;2.25;100;949.9763;;;;
2019/12/12 03:21:14;;;;;;;16.2;14.8;;;;;;;2.33;100;949.9403;;;;
2019/12/12 03:23:40;;;;;;;15.3;14;;;;;;;2.37;100;949.9147;;;;
2019/12/12 03:26:05;;;;;;;15;13.7;;;;;;;2.4;100;949.963;;;;
2019/12/12 03:28:30;;;;;;;14.8;13.6;;;;;;;2.29;100;949.8934;;;;
2019/12/12 03:30:55;;;;;;;16.1;14.7;;;;;;;2.23;100;949.8606;;;;
2019/12/12 03:33:20;;;;;;;14.8;13.6;;;;;;;2.28;100;949.8577;;;;
2019/12/12 03:35:45;;;;;;;15.8;14.5;;;;;;;2.31;100;949.8226;;;;
2019/12/12 03:38:10;;;;;;;14.9;13.7;;;;;;;2.34;100;949.7649;;;;
2019/12/12 03:40:35;;;;;;;15.5;14.2;;;;;;;2.35;100;949.7539;;;;
2019/12/12 03:43:00;;;;;;;14.9;13.6;;;;;;;2.33;100;949.7498;;;;
2019/12/12 03:45:25;;;;;;;15.5;14.2;;;;;;;2.39;100;949.7198;;;;
2019/12/12 03:47:50;;;;;;;16;14.5;;;;;;;2.31;100;949.7364;;;;
2019/12/12 03:50:16;;;;;;;16.4;14.9;;;;;;;2.33;100;949.7546;;;;
2019/12/12 03:52:41;;;;;;;14.1;12.9;;;;;;;2.48;100;949.765;;;;
2019/12/12 03:55:07;;;;;;;14;12.8;;;;;;;2.45;100;949.7065;;;;
2019/12/12 03:57:32;;;;;;;14.8;13.6;;;;;;;2.46;100;949.7271;;;;
2019/12/12 03:59:57;;;;;;;13.7;12.6;;;;;;;2.53;100;949.7422;;;;
2019/12/12 04:02:27;;;;;;;14.6;13.4;;;;;;;2.38;100;949.7178;;;;
2019/12/12 04:04:52;;;;;;;15.1;13.9;;;;;;;2.32;100;949.6997;;;;
2019/12/12 04:14:32;;;;;;;15.8;14.5;;;;;;;2.38;100;949.7791;;;;
2019/12/12 04:16:57;;;;;;;16.7;15.3;;;;;;;2.29;100;949.8226;;;;
2019/12/12 04:19:22;;;;;;;16.1;14.7;;;;;;;2.37;100;949.7483;;;;
2019/12/12 04:21:48;;;;;;;15.3;14.1;;;;;;;2.4;100;949.7541;;;;
2019/12/12 04:24:13;;;;;;;16.2;14.8;;;;;;;2.45;100;949.7104;;;;
2019/12/12 04:26:38;;;;;;;15.9;14.6;;;;;;;2.51;100;949.7633;;;;
2019/12/12 04:29:03;;;;;;;17.6;16.1;;;;;;;2.46;100;949.7762;;;;
2019/12/12 04:31:28;;;;;;;17;15.5;;;;;;;2.57;100;949.7302;;;;
2019/12/12 04:33:54;;;;;;;17.1;15.6;;;;;;;2.5;100;949.7661;;;;
2019/12/12 04:36:19;;;;;;;17.3;15.7;;;;;;;2.47;100;949.75;;;;
2019/12/12 04:38:44;;;;;;;17.2;15.8;;;;;;;2.44;100;949.7417;;;;
2019/12/12 04:41:09;;;;;;;17.5;16.1;;;;;;;2.51;100;949.731;;;;
2019/12/12 04:43:34;;;;;;;17.4;15.9;;;;;;;2.5;100;949.7662;;;;
2019/12/12 04:45:59;;;;;;;17.1;15.6;;;;;;;2.6;100;949.6945;;;;
2019/12/12 04:48:24;;;;;;;16.7;15.2;;;;;;;2.62;100;949.7285;;;;
2019/12/12 04:50:50;;;;;;;16.9;15.4;;;;;;;2.68;100;949.785;;;;
2019/12/12 04:53:15;;;;;;;17.4;15.9;;;;;;;2.78;100;949.7148;;;;
2019/12/12 04:55:40;;;;;;;17.6;16.1;;;;;;;2.57;100;949.6622;;;;
2019/12/12 04:58:05;;;;;;;15.5;14.1;;;;;;;2.79;100;949.6961;;;;
2019/12/12 05:00:31;;;;;;;15.7;14.3;;;;;;;2.72;100;949.7056;;;;
2019/12/12 05:02:56;;;;;;;18.5;16.8;;;;;;;2.56;100;949.7022;;;;
2019/12/12 05:05:21;;;;;;;18.5;16.9;;;;;;;2.55;100;949.7461;;;;
2019/12/12 05:07:46;;;;;;;17.8;16.3;;;;;;;2.48;100;949.7605;;;;
2019/12/12 05:10:11;;;;;;;17.2;15.8;;;;;;;2.52;100;949.7452;;;;
2019/12/12 05:12:37;;;;;;;18.6;17;;;;;;;2.47;100;949.795;;;;
2019/12/12 05:15:02;;;;;;;18;16.3;;;;;;;2.53;100;949.7623;;;;
2019/12/12 05:17:27;;;;;;;18.3;16.7;;;;;;;2.63;100;949.7715;;;;
2019/12/12 05:19:52;;;;;;;16.5;15.1;;;;;;;2.72;100;949.7906;;;;
2019/12/12 05:22:19;;;;;;;18.1;16.5;;;;;;;2.63;100;949.8142;;;;
2019/12/12 05:27:08;;;;;;;17.3;15.8;;;;;;;2.59;100;949.8497;;;;
2019/12/12 05:29:33;;;;;;;16.7;15.1;;;;;;;2.62;100;949.8836;;;;
2019/12/12 05:31:58;;;;;;;17.2;15.7;;;;;;;2.61;100;949.8505;;;;
2019/12/12 05:34:23;;;;;;;16.3;14.8;;;;;;;2.67;100;949.9448;;;;
2019/12/12 05:36:49;;;;;;;17.4;15.8;;;;;;;2.6;100;949.9133;;;;
2019/12/12 05:39:14;;;;;;;17;15.5;;;;;;;2.68;100;949.9274;;;;
2019/12/12 05:41:39;;;;;;;15.8;14.4;;;;;;;2.75;100;949.905;;;;
2019/12/12 05:44:05;;;;;;;16.3;14.8;;;;;;;2.83;100;949.9338;;;;
2019/12/12 05:46:30;;;;;;;15.6;14.3;;;;;;;2.72;100;949.8823;;;;
2019/12/12 05:48:55;;;;;;;16.4;14.8;;;;;;;2.76;100;949.9196;;;;
2019/12/12 05:51:21;;;;;;;15.8;14.4;;;;;;;2.86;100;949.9316;;;;
2019/12/12 05:53:46;;;;;;;15.3;14;;;;;;;2.82;100;949.9458;;;;
2019/12/12 05:56:11;;;;;;;15.2;13.8;;;;;;;2.86;100;949.9428;;;;
2019/12/12 05:58:36;;;;;;;15.3;13.9;;;;;;;2.82;100;949.9769;;;;
2019/12/12 06:01:01;;;;;;;13.7;12.5;;;;;;;3.11;100;949.9773;;;;
2019/12/12 06:03:26;;;;;;;14.4;13.1;;;;;;;2.99;99.29004;949.9743;;;;
2019/12/12 06:05:51;;;;;;;14.7;13.4;;;;;;;3;100;949.9338;;;;
2019/12/12 06:08:16;;;;;;;13.6;12.2;;;;;;;3.13;98.72266;949.9344;;;;
2019/12/12 06:10:41;;;;;;;13.8;12.5;;;;;;;3.1;98.79492;949.9537;;;;
2019/12/12 06:13:06;;;;;;;14.3;12.9;;;;;;;2.75;99.15527;949.9279;;;;
2019/12/12 06:15:32;;;;;;;15.1;13.6;;;;;;;2.81;100;949.9202;;;;
2019/12/12 06:17:58;;;;;;;14.5;13.1;;;;;;;2.81;100;949.9403;;;;
2019/12/12 06:21:11;;;;;;;14.1;12.8;;;;;;;3.02;98.91211;949.9213;;;;
2019/12/12 06:22:47;;;;;;;14.5;13.2;;;;;;;2.87;99.53418;949.8828;;;;
2019/12/12 06:25:26;;;;;;;14.3;13;;;;;;;2.88;99.7627;949.9405;;;;
2019/12/12 06:27:51;;;;;;;14.6;13.1;;;;;;;2.83;100;949.9257;;;;
2019/12/12 06:30:16;;;;;;;13.9;12.4;;;;;;;2.75;99.13184;949.9247;;;;
2019/12/12 06:32:41;;;;;;;14.2;12.9;;;;;;;2.79;99.92285;949.8892;;;;
2019/12/12 06:35:06;;;;;;;13.9;12.6;;;;;;;2.88;100;949.88;;;;
2019/12/12 06:37:31;;;;;;;15.3;13.7;;;;;;;2.85;100;949.9066;;;;
2019/12/12 06:39:56;;;;;;;14.5;13.1;;;;;;;2.77;99.6582;949.9376;;;;
2019/12/12 06:42:24;;;;;;;14.2;12.9;;;;;;;2.76;100;949.9108;;;;
2019/12/12 06:44:47;;;;;;;14.3;12.9;;;;;;;2.83;100;949.8855;;;;
2019/12/12 06:47:12;;;;;;;12.7;11.5;;;;;;;2.92;99.99902;949.8145;;;;
2019/12/12 06:49:37;;;;;;;14.2;12.1;;;;;;;3.02;99.56836;949.8441;;;;
2019/12/12 06:52:02;;;;;;;14.5;12.2;;;;;;;2.91;99.44336;949.8497;;;;
2019/12/12 06:54:28;;;;;;;15.4;12.8;;;;;;;2.82;99.52148;949.8129;;;;
2019/12/12 06:56:53;;;;;;;13.6;11.8;;;;;;;2.9;99.21289;949.7678;;;;
2019/12/12 06:59:18;;;;;;;15.7;13.2;;;;;;;2.75;99.32422;949.7586;;;;
2019/12/12 07:01:43;;;;;;;14.8;13.4;;;;;;;2.74;100;949.7894;;;;
2019/12/12 07:04:08;;;;;;;14.4;13;;;;;;;2.79;100;949.7637;;;;
2019/12/12 07:06:33;;;;;;;14.5;13;;;;;;;2.7;99.57422;949.8027;;;;
2019/12/12 07:08:58;;;;;;;14.3;13;;;;;;;2.73;99.71582;949.7997;;;;
2019/12/12 07:11:23;;;;;;;14.4;13;;;;;;;2.84;100;949.7997;;;;
2019/12/12 07:13:48;;;;;;;14.7;13.2;;;;;;;2.81;99.41992;949.8056;;;;
2019/12/12 07:18:47;;;;;;;13.8;12.4;;;;;;;2.92;99.44531;949.7856;;;;
2019/12/12 07:21:13;;;;;;;15.3;13.7;;;;;;;2.83;99.69336;949.8389;;;;
2019/12/12 07:23:29;;;;;;;14.1;12.7;;;;;;;3.01;99.93945;949.8295;;;;
2019/12/12 07:25:54;;;;;;;13.4;11.9;;;;;;;3.04;99.02051;949.8691;;;;
2019/12/12 07:28:19;;;;;;;14.3;12.8;;;;;;;2.95;99.47461;949.8476;;;;
2019/12/12 07:30:44;;;;;;;14.6;13.1;;;;;;;2.9;99.05469;949.8194;;;;
2019/12/12 07:33:09;;;;;;;15.7;13;;;;;;;2.82;99.66895;949.7936;;;;
2019/12/12 07:35:34;;;;;;;15.7;14;;;;;;;2.79;99.56055;949.8579;;;;
2019/12/12 07:37:59;;;;;;;15.9;14.1;;;;;;;2.83;99.70313;949.7986;;;;
2019/12/12 07:40:24;;;;;;;14.7;13.2;;;;;;;2.85;99.38086;949.8428;;;;
2019/12/12 07:42:50;;;;;;;13.9;12.6;;;;;;;3.03;99.5498;949.8365;;;;
2019/12/12 07:45:15;;;;;;;13.6;12.3;;;;;;;2.99;98.4541;949.827;;;;
2019/12/12 07:47:40;;;;;;;15.2;13.5;;;;;;;3.01;98.94434;949.8809;;;;
2019/12/12 07:50:05;;;;;;;14.4;12.9;;;;;;;3.05;99.37305;949.8752;;;;
2019/12/12 07:52:30;;;;;;;14.6;12.9;;;;;;;3.05;99.24902;949.8494;;;;
2019/12/12 07:54:55;;;;;;;15.8;12.9;;;;;;;2.99;98.58984;949.8608;;;;
2019/12/12 07:57:21;;;;;;;19.2;14.3;;;;;;;2.92;99.85254;949.8564;;;;
2019/12/12 07:59:46;;;;;;;15.7;13.1;;;;;;;3;98.89844;949.8638;;;;
2019/12/12 08:02:11;;;;;;;17.6;13.5;;;;;;;2.91;99.64453;949.8666;;;;
2019/12/12 08:04:54;;;;;;;15.2;13.6;;;;;;;2.89;100;949.8875;;;;
2019/12/12 08:07:01;;;;;;;18.4;13.5;;;;;;;3.06;100;949.8818;;;;
2019/12/12 08:09:26;;;;;;;14.1;12.4;;;;;;;3.1;98.49023;949.8812;;;;
2019/12/12 08:11:52;;;;;;;13.9;12.5;;;;;;;3.03;99.21094;949.9025;;;;
2019/12/12 08:14:17;;;;;;;14.4;12.9;;;;;;;3.1;99.66797;949.8982;;;;
2019/12/12 08:16:42;;;;;;;14;12.6;;;;;;;3.04;98.16113;949.873;;;;
2019/12/12 08:19:07;;;;;;;13.9;11.8;;;;;;;3.26;97.76953;949.932;;;;
2019/12/12 08:21:33;;;;;;;13.6;12.3;;;;;;;3.16;98.3457;949.8992;;;;
2019/12/12 08:23:58;;;;;;;13.7;12.4;;;;;;;3.17;97.69043;949.884;;;;
2019/12/12 08:26:23;;;;;;;13.4;12;;;;;;;3.16;98.50488;949.9322;;;;
2019/12/12 08:28:48;;;;;;;12.6;11.4;;;;;;;3.17;97.5791;949.9504;;;;
2019/12/12 08:31:13;;;;;;;12.3;11.1;;;;;;;3.21;98.06445;949.9387;;;;
2019/12/12 08:33:39;;;;;;;12.7;11.4;;;;;;;3.15;98.44824;949.9233;;;;
2019/12/12 08:36:04;;;;;;;11.4;10.3;;;;;;;3.14;97.58398;949.9383;;;;
2019/12/12 08:40:54;;;;;;;11.1;10;;;;;;;3.41;97.31543;949.9446;;;;
2019/12/12 08:43:24;;;;;;;11.1;9.9;;;;;;;3.16;97.54297;949.9322;;;;
2019/12/12 08:45:44;;;;;;;11.2;10;;;;;;;3.15;97.85742;949.9241;;;;
2019/12/12 08:48:09;;;;;;;10.6;9.6;;;;;;;3.26;98.2666;949.9183;;;;
2019/12/12 08:50:35;;;;;;;10.5;9.4;;;;;;;3.35;97.1084;949.938;;;;
2019/12/12 08:53:00;;;;;;;9.7;8.8;;;;;;;3.51;98.2207;949.9938;;;;
2019/12/12 08:55:25;;;;;;;9.6;8.5;;;;;;;3.34;97.22168;950.0231;;;;
2019/12/12 08:57:50;;;;;;;9.5;8.5;;;;;;;3.35;97.06543;949.9698;;;;
2019/12/12 09:00:15;;;;;;;9.7;8.1;;;;;;;3.28;97.24121;949.9633;;;;
2019/12/12 09:02:41;;;;;;;9.1;7.5;;;;;;;3.29;97.60742;949.9309;;;;
2019/12/12 09:05:06;;;;;;;8.2;7.1;;;;;;;3.42;97.59082;949.9146;;;;
2019/12/12 09:07:31;;;;;;;8;6.2;;;;;;;3.54;95.95605;949.8925;;;;
2019/12/12 09:09:56;;;;;;;7.5;6.4;;;;;;;3.5;96.30762;949.9401;;;;
2019/12/12 09:12:21;;;;;;;6.8;5.6;;;;;;;3.47;97.00391;949.9758;;;;
2019/12/12 09:14:50;;;;;;;8.2;5.5;;;;;;;3.4;96.35352;949.9422;;;;
2019/12/12 09:19:37;;;;;;;7;4.7;;;;;;;3.55;96.5127;949.9274;;;;
2019/12/12 09:22:02;;;;;;;5.2;4.5;;;;;;;3.56;96.10645;949.8956;;;;
2019/12/12 09:24:28;;;;;;;5.8;4.5;;;;;;;3.57;96.0957;949.9367;;;;
2019/12/12 09:26:53;;;;;;;4.7;4.1;;;;;;;3.55;96.56934;949.9281;;;;
2019/12/12 09:29:18;;;;;;;6.8;4.4;;;;;;;3.48;96.79102;949.9478;;;;
2019/12/12 09:31:43;;;;;;;6.3;4.2;;;;;;;3.54;97.21289;949.9367;;;;
2019/12/12 09:34:08;;;;;;;6.2;3.7;;;;;;;3.53;98.51074;949.9462;;;;
2019/12/12 09:36:33;;;;;;;5.2;3.6;;;;;;;3.66;97.2959;949.9178;;;;
2019/12/12 09:38:59;;;;;;;5.4;3.4;;;;;;;3.83;96.12012;949.8781;;;;
2019/12/12 09:41:24;;;;;;;5.7;2.9;;;;;;;3.69;96.64453;949.8752;;;;
2019/12/12 09:43:49;;;;;;;6.9;2.9;;;;;;;3.66;96.37598;949.9426;;;;
2019/12/12 09:46:14;;;;;;;5.2;2.8;;;;;;;3.66;98.0293;949.8727;;;;
2019/12/12 09:48:39;;;;;;;7.8;2.9;;;;;;;3.59;98.15137;949.83;;;;
2019/12/12 09:51:04;;;;;;;7.1;2.8;;;;;;;3.76;96.51367;949.8279;;;;
2019/12/12 09:53:29;;;;;;;5.3;2.6;;;;;;;3.4;98.02832;949.8173;;;;
2019/12/12 09:55:55;;;;;;;6.5;2.6;;;;;;;3.59;97.96973;949.8296;;;;
2019/12/12 09:58:20;;;;;;;5.2;2.5;;;;;;;3.74;98.16406;949.7874;;;;
2019/12/12 10:00:45;;;;;;;3.2;2.3;;;;;;;3.57;98.78125;949.8006;;;;
2019/12/12 10:03:10;;;;;;;4.2;2.4;;;;;;;3.65;97.74707;949.7924;;;;
2019/12/12 10:05:35;;;;;;;3.6;2.4;;;;;;;3.64;98.10449;949.772;;;;
2019/12/12 10:08:01;;;;;;;3.1;2;;;;;;;3.63;98.86133;949.7026;;;;
2019/12/12 10:10:26;;;;;;;3.2;2.4;;;;;;;3.69;98.72656;949.6238;;;;
2019/12/12 10:12:51;;;;;;;3.6;2.2;;;;;;;3.82;99.55078;949.6032;;;;
2019/12/12 10:15:16;;;;;;;3.1;2;;;;;;;3.58;97.73047;949.6052;;;;
2019/12/12 10:17:41;;;;;;;4.3;2;;;;;;;3.54;99.60156;949.58;;;;
2019/12/12 10:20:07;;;;;;;3.1;2;;;;;;;3.53;98.65723;949.484;;;;
2019/12/12 10:29:47;;;;;;;3.2;2.1;;;;;;;3.53;97.50293;949.3547;;;;
2019/12/12 10:32:13;;;;;;;1.7;1.5;;;;;;;3.51;98.8457;949.3722;;;;
2019/12/12 10:34:38;;;;;;;3;2;;;;;;;3.54;98.87695;949.3231;;;;
2019/12/12 10:37:03;;;;;;;2.6;1.7;;;;;;;3.7;98.22363;949.3187;;;;
2019/12/12 10:39:28;;;;;;;5.2;1.8;;;;;;;3.66;97.88281;949.2725;;;;
2019/12/12 10:41:53;;;;;;;3;1.6;;;;;;;3.67;96.85645;949.2244;;;;
2019/12/12 10:44:18;;;;;;;3.3;1.9;;;;;;;3.72;97.83105;949.2179;;;;
2019/12/12 10:46:43;;;;;;;5.3;2.1;;;;;;;3.6;98.92285;949.1613;;;;
2019/12/12 10:49:08;;;;;;;3.7;2.2;;;;;;;3.52;99.35742;949.1525;;;;
2019/12/12 10:51:33;;;;;;;3.3;2.2;;;;;;;3.6;98.82129;949.1291;;;;
2019/12/12 10:53:58;;;;;;;3.9;1.9;;;;;;;3.63;98.75977;949.1187;;;;
2019/12/12 10:56:23;;;;;;;3.1;1.8;;;;;;;3.94;97.6875;949.0585;;;;
2019/12/12 10:58:48;;;;;;;2;1.7;;;;;;;4.28;96.33691;949.0984;;;;
2019/12/12 11:01:13;;;;;;;2.6;1.6;;;;;;;3.52;97.49121;949.0962;;;;
2019/12/12 11:03:39;;;;;;;3.1;2.4;;;;;;;3.72;99.41504;949.0558;;;;
2019/12/12 11:06:04;;;;;;;3.5;2.1;;;;;;;4.13;97.79883;948.955;;;;
2019/12/12 11:08:29;;;;;;;2.2;2;;;;;;;3.64;98.61426;948.9625;;;;
2019/12/12 11:10:54;;;;;;;2.4;2.2;;;;;;;3.66;98.83594;949.006;;;;
2019/12/12 11:13:19;;;;;;;4;2;;;;;;;3.57;99.18652;948.9606;;;;
2019/12/12 11:15:44;;;;;;;2.9;2;;;;;;;3.78;99.38379;948.9207;;;;
2019/12/12 11:18:09;;;;;;;2.7;1.9;;;;;;;3.51;97.54199;948.9066;;;;
2019/12/12 11:20:34;;;;;;;2.1;1.9;;;;;;;3.59;97.7207;948.8953;;;;
2019/12/12 11:22:59;;;;;;;2.7;2.3;;;;;;;3.66;100;948.8811;;;;
2019/12/12 11:25:52;;;;;;;2.2;2;;;;;;;3.74;98.50391;948.8842;;;;
2019/12/12 11:30:15;;;;;;;4.2;3;;;;;;;3.65;99.58105;948.8367;;;;
2019/12/12 11:32:40;;;;;;;2.6;1.8;;;;;;;3.86;97.74902;948.7799;;;;
2019/12/12 11:35:05;;;;;;;2.5;1.7;;;;;;;4.03;96.42773;948.8144;;;;
2019/12/12 11:37:30;;;;;;;2.2;1.7;;;;;;;3.6;97.64551;948.84;;;;
2019/12/12 11:39:55;;;;;;;2.1;1.9;;;;;;;3.69;98.94434;948.7837;;;;
2019/12/12 11:42:21;;;;;;;2.3;2.1;;;;;;;3.66;99.20801;948.7402;;;;
2019/12/12 11:44:46;;;;;;;2.2;1.6;;;;;;;3.49;98.1875;948.7201;;;;
2019/12/12 11:47:11;;;;;;;1.8;1.7;;;;;;;3.65;98.22266;948.6884;;;;
2019/12/12 11:49:36;;;;;;;1.7;1.5;;;;;;;3.71;97.32813;948.6445;;;;
2019/12/12 11:52:01;;;;;;;2.9;1.6;;;;;;;3.79;97.7666;948.6469;;;;
2019/12/12 11:54:26;;;;;;;2;1.8;;;;;;;3.61;97.52344;948.6525;;;;
2019/12/12 11:56:52;;;;;;;1.8;1.7;;;;;;;3.46;98.76563;948.6716;;;;
2019/12/12 11:59:17;;;;;;;2.9;2.6;;;;;;;3.68;97.33398;948.5942;;;;
2019/12/12 12:01:45;;;;;;;2.5;1.8;;;;;;;3.74;97.65234;948.4919;;;;
2019/12/12 12:04:10;;;;;;;2.6;1.8;;;;;;;3.59;96.7002;948.502;;;;
2019/12/12 12:06:35;;;;;;;2.6;2.2;;;;;;;3.53;98.36523;948.4412;;;;
2019/12/12 12:09:00;;;;;;;2.2;1.9;;;;;;;3.7;96.98926;948.4689;;;;
2019/12/12 12:11:25;;;;;;;2.1;1.9;;;;;;;3.42;97.02539;948.4436;;;;
2019/12/12 12:13:50;;;;;;;2.2;2;;;;;;;3.31;97.41992;948.4364;;;;
2019/12/12 12:16:15;;;;;;;2.2;2;;;;;;;3.43;97.81934;948.4091;;;;
2019/12/12 12:18:40;;;;;;;2.5;2.1;;;;;;;3.48;97.96582;948.3711;;;;
2019/12/12 12:21:06;;;;;;;2.8;2.3;;;;;;;3.4;97.74512;948.373;;;;
2019/12/12 12:23:32;;;;;;;2.3;1.9;;;;;;;3.38;99.3916;948.3424;;;;
2019/12/12 12:25:57;;;;;;;2.7;2.3;;;;;;;3.51;98.0332;948.2939;;;;
2019/12/12 12:28:22;;;;;;;2.9;2.6;;;;;;;3.41;97.77246;948.3211;;;;
2019/12/12 12:30:47;;;;;;;4.1;3.4;;;;;;;3.62;97.46875;948.293;;;;
2019/12/12 12:33:12;;;;;;;2.5;2.3;;;;;;;3.62;97.14063;948.2511;;;;
2019/12/12 12:35:38;;;;;;;2.7;2.5;;;;;;;3.61;97.72461;948.2087;;;;
2019/12/12 12:38:03;;;;;;;2.2;2;;;;;;;3.6;96.8418;948.1804;;;;
2019/12/12 12:40:28;;;;;;;3;2.5;;;;;;;3.52;97.89941;948.0936;;;;
2019/12/12 12:42:53;;;;;;;2.9;2.6;;;;;;;3.66;98.66602;948.1103;;;;
2019/12/12 12:45:19;;;;;;;2.8;2.5;;;;;;;3.6;97.48535;948.1344;;;;
2019/12/12 12:48:01;;;;;;;2.3;2;;;;;;;3.35;97.62012;948.1339;;;;
2019/12/12 12:50:09;;;;;;;3.2;2.9;;;;;;;3.18;98.87109;948.1166;;;;
2019/12/12 12:52:34;;;;;;;2.9;2.6;;;;;;;3.29;99.63281;947.9668;;;;
2019/12/12 12:54:59;;;;;;;5.7;4.8;;;;;;;3.52;99.07422;947.9775;;;;
2019/12/12 12:57:25;;;;;;;2.7;2.5;;;;;;;3.43;98.70508;948.0316;;;;
2019/12/12 12:59:50;;;;;;;2.6;2.4;;;;;;;3.27;99.26465;948.0336;;;;
2019/12/12 13:02:15;;;;;;;3.5;2.5;;;;;;;3.38;99.12012;947.9624;;;;
2019/12/12 13:04:40;;;;;;;2.7;2.5;;;;;;;3.46;98.38086;947.9437;;;;
2019/12/12 13:07:05;;;;;;;2.5;2.3;;;;;;;3.29;98.5;947.91;;;;
2019/12/12 13:09:30;;;;;;;2.9;2.7;;;;;;;3.06;99.20508;947.9562;;;;
2019/12/12 13:11:55;;;;;;;2.7;2.5;;;;;;;3.11;99.86035;947.8117;;;;
2019/12/12 13:14:20;;;;;;;3.5;3.2;;;;;;;3.23;99.54883;947.8247;;;;
2019/12/12 13:16:46;;;;;;;2.9;2.6;;;;;;;3.37;98.71094;947.7916;;;;
2019/12/12 13:19:11;;;;;;;4;2.9;;;;;;;3.49;97.91504;947.8102;;;;
2019/12/12 13:21:36;;;;;;;3.2;2.5;;;;;;;3.36;97.79395;947.7512;;;;
2019/12/12 13:24:01;;;;;;;4.5;3.2;;;;;;;3.33;99.7207;947.7601;;;;
2019/12/12 13:26:26;;;;;;;3.2;2.7;;;;;;;3.32;98.75684;947.7434;;;;
2019/12/12 13:28:51;;;;;;;4.3;2.8;;;;;;;3.37;98.3623;947.7;;;;
2019/12/12 13:31:17;;;;;;;3.4;2.8;;;;;;;3.38;98.5;947.7011;;;;
2019/12/12 13:33:42;;;;;;;4.2;3;;;;;;;3.31;98.33594;947.7071;;;;
2019/12/12 13:36:08;;;;;;;3.2;2.9;;;;;;;3.31;97.62305;947.6982;;;;
2019/12/12 13:38:33;;;;;;;2.7;2.5;;;;;;;3.31;97.05957;947.6041;;;;
2019/12/12 13:40:58;;;;;;;2.9;2.7;;;;;;;3.32;97.63672;947.6243;;;;
2019/12/12 13:43:23;;;;;;;3;2.7;;;;;;;3.4;98.57227;947.6411;;;;
2019/12/12 13:45:48;;;;;;;4.1;2.8;;;;;;;3.42;97.8291;947.5942;;;;
2019/12/12 13:48:14;;;;;;;6.7;6;;;;;;;3.38;97.74121;947.553;;;;
2019/12/12 13:50:40;;;;;;;5.1;2.9;;;;;;;3.31;97.91699;947.5356;;;;
2019/12/12 13:53:05;;;;;;;6.7;3.3;;;;;;;3.34;98.53516;947.4889;;;;
2019/12/12 13:55:30;;;;;;;4.4;3.4;;;;;;;3.45;98.32227;947.5524;;;;
2019/12/12 13:57:55;;;;;;;2.9;2.2;;;;;;;3.7;96.03516;947.507;;;;
2019/12/12 14:00:21;;;;;;;3.8;2.6;;;;;;;3.72;96.39258;947.5029;;;;
2019/12/12 14:02:46;;;;;;;2.9;2.6;;;;;;;3.74;96.85938;947.4886;;;;
2019/12/12 14:05:11;;;;;;;2.7;2.5;;;;;;;3.69;95.52148;947.4908;;;;
2019/12/12 14:07:36;;;;;;;2.6;2.3;;;;;;;3.63;95.1582;947.4539;;;;
2019/12/12 14:10:02;;;;;;;2.7;2.4;;;;;;;3.75;95.6416;947.4078;;;;
2019/12/12 14:12:27;;;;;;;2.9;2.6;;;;;;;3.51;96.27637;947.4122;;;;
2019/12/12 14:14:52;;;;;;;2.8;2.5;;;;;;;3.47;96.09766;947.4379;;;;
2019/12/12 14:17:17;;;;;;;2.9;2.4;;;;;;;3.61;96.2998;947.4372;;;;
2019/12/12 14:19:42;;;;;;;2.1;1.9;;;;;;;3.59;94.8916;947.3725;;;;
2019/12/12 14:22:07;;;;;;;3.5;2.1;;;;;;;3.78;93.52734;947.4398;;;;
2019/12/12 14:24:32;;;;;;;3.3;2.2;;;;;;;3.54;95.35352;947.3308;;;;
2019/12/12 14:26:57;;;;;;;2.6;2.1;;;;;;;3.48;94.37891;947.3293;;;;
2019/12/12 14:29:22;;;;;;;3;2.3;;;;;;;3.49;96.27148;947.257;;;;
2019/12/12 14:31:48;;;;;;;2.7;2.3;;;;;;;3.39;96.37402;947.306;;;;
2019/12/12 14:34:14;;;;;;;2.9;2.6;;;;;;;3.38;96.08691;947.2395;;;;
2019/12/12 14:36:43;;;;;;;3.4;2.6;;;;;;;3.59;95.04883;947.238;;;;
2019/12/12 14:39:03;;;;;;;2.9;2.5;;;;;;;3.71;94.92969;947.1926;;;;
2019/12/12 14:41:34;;;;;;;3;2.7;;;;;;;3.78;94.02734;947.1685;;;;
2019/12/12 14:43:59;;;;;;;3.6;2.6;;;;;;;3.7;94.88184;947.1085;;;;
2019/12/12 14:46:24;;;;;;;2.7;2.5;;;;;;;3.74;95.27539;947.0991;;;;
2019/12/12 14:48:49;;;;;;;3.3;2.1;;;;;;;3.48;94.12988;947.0829;;;;
2019/12/12 14:51:14;;;;;;;2.7;2.5;;;;;;;3.52;95.38379;947.074;;;;
2019/12/12 14:53:39;;;;;;;3;2.6;;;;;;;3.51;95.82129;947.1127;;;;
2019/12/12 14:56:04;;;;;;;3.1;2.4;;;;;;;3.51;94.56836;947.0717;;;;
2019/12/12 14:58:29;;;;;;;2.8;2.5;;;;;;;3.48;95.2041;947.0989;;;;
2019/12/12 15:00:55;;;;;;;3.2;2.4;;;;;;;3.62;94.27344;947.1063;;;;
2019/12/12 15:03:20;;;;;;;2.8;2.4;;;;;;;3.48;93.7793;947.07;;;;
2019/12/12 15:05:45;;;;;;;2.9;2.3;;;;;;;3.47;93.94727;947.0941;;;;
2019/12/12 15:08:10;;;;;;;3;2.3;;;;;;;3.5;95.51563;947.026;;;;